Time;durP1;ratioP1;P1;durP2;ratioP2;P2;SDS_P1;SDS_P2;PMS_P1;PMS_P2;Temp;Humidity;BMP_temperature;BMP_pressure;BME280_temperature;BME280_humidity;BME280_pressure;Samples;Min_cycle;Max_cycle;Signal;HPM_P1;HPM_P2
2024/04/11 00:02:57;;;;;;;3.03;2.13;;;;;;;;;;6816902;25;20641;-73
2024/04/11 00:06:01;;;;;;;4.43;2.38;;;;;;;;;;6761593;26;20085;-73
2024/04/11 00:09:04;;;;;;;6.15;2.75;;;;;;;;;;6783547;26;20536;-73
2024/04/11 00:12:08;;;;;;;4.30;3.90;;;;;;;;;;6768785;26;20545;-73
2024/04/11 00:15:11;;;;;;;3.40;1.70;;;;;;;;;;6767232;26;20446;-73
2024/04/11 00:18:13;;;;;;;8.00;1.90;;;;;;;;;;6758742;26;20695;-73
2024/04/11 00:21:18;;;;;;;7.85;2.55;;;;;;;;;;6771931;26;20002;-72
2024/04/11 00:24:21;;;;;;;3.28;1.95;;;;;;;;;;6772690;26;20018;-73
2024/04/11 00:27:23;;;;;;;6.82;2.25;;;;;;;;;;6785424;26;20009;-73
2024/04/11 00:30:27;;;;;;;2.97;1.73;;;;;;;;;;6797124;26;19999;-73
2024/04/11 00:33:30;;;;;;;3.65;1.92;;;;;;;;;;6772241;26;20002;-73
2024/04/11 00:36:34;;;;;;;5.40;2.13;;;;;;;;;;6786959;26;20009;-73
2024/04/11 00:39:37;;;;;;;5.10;2.40;;;;;;;;;;6793211;26;20006;-73
2024/04/11 00:42:40;;;;;;;4.07;3.15;;;;;;;;;;6774185;26;20016;-73
2024/04/11 00:45:45;;;;;;;5.57;4.70;;;;;;;;;;6762672;26;20067;-71
2024/04/11 00:48:47;;;;;;;4.55;2.20;;;;;;;;;;6772481;26;20006;-73
2024/04/11 00:51:50;;;;;;;3.22;1.73;;;;;;;;;;6745660;26;20020;-72
2024/04/11 00:54:53;;;;;;;2.72;1.85;;;;;;;;;;6782537;26;20038;-74
2024/04/11 00:57:56;;;;;;;6.43;2.88;;;;;;;;;;6783601;26;20087;-73
2024/04/11 01:00:59;;;;;;;6.70;4.47;;;;;;;;;;6775181;26;20531;-73
2024/04/11 01:04:05;;;;;;;12.65;4.18;;;;;;;;;;6802561;25;19998;-72
2024/04/11 01:07:10;;;;;;;6.07;3.17;;;;;;;;;;6780758;26;20075;-73
2024/04/11 01:10:17;;;;;;;4.95;3.15;;;;;;;;;;6772319;26;20363;-73
2024/04/11 01:13:20;;;;;;;5.13;2.28;;;;;;;;;;6786622;26;20018;-73
2024/04/11 01:16:25;;;;;;;4.38;2.13;;;;;;;;;;6785641;25;19998;-73
2024/04/11 01:19:27;;;;;;;;;;;;;;;;;;6788706;26;20014;-73
2024/04/11 01:22:30;;;;;;;5.93;2.65;;;;;;;;;;6785212;26;19954;-73
2024/04/11 01:25:33;;;;;;;2.83;1.65;;;;;;;;;;6781832;26;20432;-72
2024/04/11 01:28:36;;;;;;;4.30;2.88;;;;;;;;;;6791579;26;20372;-73
2024/04/11 01:31:38;;;;;;;5.50;2.70;;;;;;;;;;6823980;25;20010;-73
2024/04/11 01:34:42;;;;;;;6.90;4.70;;;;;;;;;;6753022;26;20002;-72
2024/04/11 01:37:45;;;;;;;4.95;2.47;;;;;;;;;;6777588;26;20014;-73
2024/04/11 01:40:48;;;;;;;6.20;2.67;;;;;;;;;;6825488;25;20592;-73
2024/04/11 01:43:50;;;;;;;8.20;2.20;;;;;;;;;;6785798;26;20704;-72
2024/04/11 01:46:53;;;;;;;6.28;2.53;;;;;;;;;;6780714;26;20584;-71
2024/04/11 01:49:56;;;;;;;6.00;3.13;;;;;;;;;;6769034;26;20022;-73
2024/04/11 01:52:58;;;;;;;4.63;2.05;;;;;;;;;;6777073;26;20011;-72
2024/04/11 01:56:01;;;;;;;3.97;2.70;;;;;;;;;;6783049;26;19998;-73
2024/04/11 01:59:04;;;;;;;3.55;2.17;;;;;;;;;;6794439;26;20021;-72
2024/04/11 02:02:08;;;;;;;6.03;5.57;;;;;;;;;;6758983;26;20082;-72
2024/04/11 02:05:11;;;;;;;4.28;1.90;;;;;;;;;;6789289;26;20002;-72
2024/04/11 02:08:16;;;;;;;4.85;4.35;;;;;;;;;;6763056;26;20862;-72
2024/04/11 02:11:19;;;;;;;4.65;2.47;;;;;;;;;;6781044;26;20022;-72
2024/04/11 02:14:21;;;;;;;4.75;2.60;;;;;;;;;;6788523;26;20086;-72
2024/04/11 02:17:24;;;;;;;4.38;3.00;;;;;;;;;;6782733;26;20415;-72
2024/04/11 02:20:27;;;;;;;9.30;7.68;;;;;;;;;;6788515;26;20763;-72
2024/04/11 02:23:30;;;;;;;4.97;2.35;;;;;;;;;;6778958;26;20016;-73
2024/04/11 02:26:36;;;;;;;4.03;3.15;;;;;;;;;;6778023;26;20042;-72
2024/04/11 02:29:39;;;;;;;7.97;2.72;;;;;;;;;;6770440;26;20017;-73
2024/04/11 02:32:42;;;;;;;6.78;3.17;;;;;;;;;;6825421;25;20020;-73
2024/04/11 02:35:46;;;;;;;5.65;2.60;;;;;;;;;;6793264;26;20071;-72
2024/04/11 02:38:49;;;;;;;5.22;2.85;;;;;;;;;;6788641;26;20067;-72
2024/04/11 02:41:52;;;;;;;9.60;6.55;;;;;;;;;;6784341;26;20007;-72
2024/04/11 02:44:56;;;;;;;7.18;6.22;;;;;;;;;;6771109;26;20001;-72
2024/04/11 02:47:59;;;;;;;5.72;4.88;;;;;;;;;;6790698;25;20692;-71
2024/04/11 02:51:04;;;;;;;6.75;3.60;;;;;;;;;;6787736;26;20071;-72
2024/04/11 02:54:09;;;;;;;3.90;2.47;;;;;;;;;;6783298;26;20694;-72
2024/04/11 02:57:11;;;;;;;;;;;;;;;;;;6809465;25;20376;-72
2024/04/11 03:00:16;;;;;;;4.07;3.05;;;;;;;;;;6790219;26;20922;-73
2024/04/11 03:03:20;;;;;;;6.95;2.88;;;;;;;;;;6801048;25;19998;-72
2024/04/11 03:06:22;;;;;;;5.55;2.75;;;;;;;;;;6785583;26;20005;-72
2024/04/11 03:09:26;;;;;;;7.82;6.55;;;;;;;;;;6775788;26;20002;-72
2024/04/11 03:12:29;;;;;;;4.22;3.40;;;;;;;;;;6784046;25;20071;-72
2024/04/11 03:15:31;;;;;;;4.20;3.13;;;;;;;;;;6792877;26;19994;-72
2024/04/11 03:18:34;;;;;;;4.93;3.50;;;;;;;;;;6787995;25;20002;-71
2024/04/11 03:21:40;;;;;;;5.70;4.97;;;;;;;;;;6784375;26;20728;-72
2024/04/11 03:24:44;;;;;;;5.78;3.97;;;;;;;;;;6787730;26;19999;-72
2024/04/11 03:27:46;;;;;;;7.43;6.80;;;;;;;;;;6791197;26;20003;-72
2024/04/11 03:31:04;;;;;;;6.68;3.92;;;;;;;;;;6786744;26;20010;-72
2024/04/11 03:34:06;;;;;;;15.23;3.20;;;;;;;;;;6793282;25;19998;-72
2024/04/11 03:37:09;;;;;;;10.15;6.63;;;;;;;;;;6799886;26;20014;-72
2024/04/11 03:40:12;;;;;;;6.85;3.30;;;;;;;;;;6789216;25;20002;-72
2024/04/11 03:43:15;;;;;;;7.38;3.10;;;;;;;;;;6799663;26;20130;-72
2024/04/11 03:46:23;;;;;;;7.05;3.22;;;;;;;;;;6788628;26;19993;-72
2024/04/11 03:49:27;;;;;;;11.75;4.82;;;;;;;;;;6786316;25;20883;-72
2024/04/11 03:52:31;;;;;;;20.77;4.78;;;;;;;;;;6804200;26;19997;-73
2024/04/11 03:55:43;;;;;;;12.75;4.82;;;;;;;;;;6777406;26;20017;-72
2024/04/11 03:58:56;;;;;;;11.65;3.08;;;;;;;;;;6868199;25;20192;-72
2024/04/11 04:01:58;;;;;;;6.93;5.47;;;;;;;;;;6811226;26;20046;-72
2024/04/11 04:05:01;;;;;;;8.02;6.40;;;;;;;;;;6783468;26;20053;-72
2024/04/11 04:08:04;;;;;;;5.65;5.00;;;;;;;;;;6797044;26;20002;-72
2024/04/11 04:11:07;;;;;;;6.63;5.93;;;;;;;;;;6815213;26;20014;-72
2024/04/11 04:14:13;;;;;;;4.28;2.47;;;;;;;;;;6798217;26;20016;-72
2024/04/11 04:17:16;;;;;;;6.65;5.88;;;;;;;;;;6832614;25;20046;-72
2024/04/11 04:20:20;;;;;;;4.60;3.95;;;;;;;;;;6785420;26;20003;-72
2024/04/11 04:23:23;;;;;;;6.82;6.00;;;;;;;;;;6802833;26;20002;-74
2024/04/11 04:26:30;;;;;;;6.03;3.20;;;;;;;;;;6781799;26;20021;-74
2024/04/11 04:29:37;;;;;;;8.63;5.78;;;;;;;;;;6779890;26;20017;-73
2024/04/11 04:32:40;;;;;;;8.35;6.80;;;;;;;;;;6850506;25;20561;-73
2024/04/11 04:35:43;;;;;;;7.68;3.65;;;;;;;;;;6761676;26;20027;-73
2024/04/11 04:38:49;;;;;;;7.47;6.72;;;;;;;;;;6755593;26;20046;-73
2024/04/11 04:41:52;;;;;;;8.00;5.75;;;;;;;;;;6795316;26;19998;-74
2024/04/11 04:44:55;;;;;;;13.68;5.43;;;;;;;;;;6786233;26;20104;-72
2024/04/11 04:47:58;;;;;;;11.07;5.38;;;;;;;;;;6752702;26;20008;-72
2024/04/11 04:51:01;;;;;;;5.60;5.10;;;;;;;;;;6779311;25;19994;-72
2024/04/11 04:54:04;;;;;;;5.45;3.17;;;;;;;;;;6784971;26;20075;-71
2024/04/11 04:57:07;;;;;;;7.03;5.43;;;;;;;;;;6779524;26;20009;-72
2024/04/11 05:00:13;;;;;;;4.13;3.25;;;;;;;;;;6777022;26;19997;-72
2024/04/11 05:03:16;;;;;;;6.82;3.97;;;;;;;;;;6786206;26;20010;-72
2024/04/11 05:06:19;;;;;;;4.30;3.58;;;;;;;;;;6798170;26;20001;-73
2024/04/11 05:09:23;;;;;;;6.78;6.13;;;;;;;;;;6777948;26;20505;-72
2024/04/11 05:12:27;;;;;;;5.80;3.95;;;;;;;;;;6790648;26;20079;-73
2024/04/11 05:15:29;;;;;;;9.07;7.32;;;;;;;;;;6760718;26;20025;-72
2024/04/11 05:18:38;;;;;;;7.65;3.53;;;;;;;;;;6788532;25;20017;-73
2024/04/11 05:21:41;;;;;;;4.80;3.15;;;;;;;;;;6786500;26;20612;-74
2024/04/11 05:24:44;;;;;;;9.10;4.47;;;;;;;;;;6798460;26;20117;-74
2024/04/11 05:27:48;;;;;;;10.23;7.28;;;;;;;;;;6789558;26;20017;-73
2024/04/11 05:30:52;;;;;;;5.55;3.92;;;;;;;;;;6783127;26;20769;-73
2024/04/11 05:33:59;;;;;;;5.82;4.47;;;;;;;;;;6783952;26;20252;-73
2024/04/11 05:37:05;;;;;;;11.07;4.03;;;;;;;;;;6796764;26;20012;-73
2024/04/11 05:40:08;;;;;;;8.00;5.68;;;;;;;;;;6785291;26;20833;-72
2024/04/11 05:43:10;;;;;;;6.60;4.43;;;;;;;;;;6831781;25;20007;-73
2024/04/11 05:46:22;;;;;;;8.70;6.53;;;;;;;;;;6779562;26;20773;-73
2024/04/11 05:49:25;;;;;;;7.53;6.80;;;;;;;;;;6787228;26;19994;-73
2024/04/11 05:52:30;;;;;;;6.70;3.60;;;;;;;;;;6818564;26;20423;-72
2024/04/11 05:55:35;;;;;;;6.63;4.10;;;;;;;;;;6771029;26;19995;-73
2024/04/11 05:58:38;;;;;;;6.70;3.90;;;;;;;;;;6781653;26;20331;-72
2024/04/11 06:01:41;;;;;;;20.73;4.40;;;;;;;;;;6749914;25;20459;-72
2024/04/11 06:04:46;;;;;;;10.10;3.45;;;;;;;;;;6763659;26;19999;-73
2024/04/11 06:07:50;;;;;;;10.23;3.30;;;;;;;;;;6794547;26;20009;-72
2024/04/11 06:10:52;;;;;;;6.47;3.55;;;;;;;;;;6777653;26;20014;-73
2024/04/11 06:13:55;;;;;;;6.13;3.88;;;;;;;;;;6778680;26;20665;-74
2024/04/11 06:16:58;;;;;;;10.48;4.03;;;;;;;;;;6804032;25;19993;-73
2024/04/11 06:20:02;;;;;;;10.40;3.67;;;;;;;;;;6794235;26;20609;-73
2024/04/11 06:23:15;;;;;;;10.55;3.72;;;;;;;;;;6783685;26;20378;-73
2024/04/11 06:26:18;;;;;;;6.20;4.07;;;;;;;;;;6799638;26;20050;-72
2024/04/11 06:29:22;;;;;;;6.05;3.83;;;;;;;;;;6792922;26;19998;-72
2024/04/11 06:32:26;;;;;;;7.80;2.97;;;;;;;;;;6779046;26;20003;-73
2024/04/11 06:35:29;;;;;;;9.02;3.35;;;;;;;;;;6782515;26;20010;-73
2024/04/11 06:38:31;;;;;;;8.80;3.78;;;;;;;;;;6814770;26;20001;-73
2024/04/11 06:41:34;;;;;;;12.70;7.63;;;;;;;;;;6777255;26;20045;-74
2024/04/11 06:44:40;;;;;;;7.15;2.80;;;;;;;;;;6789205;26;20018;-73
2024/04/11 06:47:43;;;;;;;8.25;2.97;;;;;;;;;;6769422;26;20017;-73
2024/04/11 06:50:56;;;;;;;8.45;3.55;;;;;;;;;;6776003;26;20020;-73
2024/04/11 06:53:58;;;;;;;7.47;2.75;;;;;;;;;;6801026;26;19998;-73
2024/04/11 06:57:03;;;;;;;6.53;3.38;;;;;;;;;;6779764;26;20008;-73
2024/04/11 07:00:12;;;;;;;8.70;3.35;;;;;;;;;;6768784;26;20005;-73
2024/04/11 07:03:16;;;;;;;13.20;3.00;;;;;;;;;;6786734;26;20481;-73
2024/04/11 07:06:23;;;;;;;7.57;2.75;;;;;;;;;;6775704;26;19994;-73
2024/04/11 07:09:37;;;;;;;7.95;3.50;;;;;;;;;;6764249;26;19999;-73
2024/04/11 07:12:41;;;;;;;5.25;2.60;;;;;;;;;;6756908;26;20006;-73
2024/04/11 07:15:43;;;;;;;7.53;3.15;;;;;;;;;;6788433;26;20012;-73
2024/04/11 07:18:54;;;;;;;10.93;2.97;;;;;;;;;;6786573;26;20006;-73
2024/04/11 07:21:57;;;;;;;8.98;3.45;;;;;;;;;;6788394;26;20342;-73
2024/04/11 07:25:00;;;;;;;10.88;3.95;;;;;;;;;;6782709;26;20010;-73
2024/04/11 07:28:06;;;;;;;5.38;3.53;;;;;;;;;;6777600;26;20025;-74
2024/04/11 07:31:14;;;;;;;8.90;3.22;;;;;;;;;;6786427;26;20002;-72
2024/04/11 07:34:18;;;;;;;11.93;2.88;;;;;;;;;;6766781;26;20415;-72
2024/04/11 07:37:25;;;;;;;5.97;2.53;;;;;;;;;;6777264;26;20406;-72
2024/04/11 07:40:28;;;;;;;6.57;2.40;;;;;;;;;;6768510;26;20051;-72
2024/04/11 07:43:31;;;;;;;10.63;2.35;;;;;;;;;;6785257;26;19999;-73
2024/04/11 07:46:33;;;;;;;6.32;2.83;;;;;;;;;;6791576;26;20014;-73
2024/04/11 07:49:48;;;;;;;7.22;3.88;;;;;;;;;;6777670;26;20014;-74
2024/04/11 07:52:52;;;;;;;6.72;2.92;;;;;;;;;;6793523;26;20059;-74
2024/04/11 07:55:55;;;;;;;12.10;3.58;;;;;;;;;;6822260;25;20008;-74
2024/04/11 07:58:57;;;;;;;9.02;2.50;;;;;;;;;;6799121;26;20546;-74
2024/04/11 08:02:00;;;;;;;8.85;1.98;;;;;;;;;;6775969;26;20389;-73
2024/04/11 08:05:04;;;;;;;7.63;2.38;;;;;;;;;;6791126;26;20021;-72
2024/04/11 08:08:06;;;;;;;6.65;2.75;;;;;;;;;;6784374;26;20003;-73
2024/04/11 08:11:10;;;;;;;4.78;2.30;;;;;;;;;;6830570;25;20009;-72
2024/04/11 08:14:13;;;;;;;8.50;2.13;;;;;;;;;;6778249;26;20007;-72
2024/04/11 08:17:15;;;;;;;6.28;2.78;;;;;;;;;;6793763;26;20009;-73
2024/04/11 08:20:19;;;;;;;5.25;2.60;;;;;;;;;;6765320;26;20079;-72
2024/04/11 08:23:24;;;;;;;5.43;1.80;;;;;;;;;;6760633;26;20061;-72
2024/04/11 08:26:27;;;;;;;3.60;1.88;;;;;;;;;;6764502;26;20089;-72
2024/04/11 08:29:29;;;;;;;4.55;1.80;;;;;;;;;;6718189;26;20606;-73
2024/04/11 08:32:38;;;;;;;7.40;1.75;;;;;;;;;;6809410;25;20910;-73
2024/04/11 08:35:44;;;;;;;2.97;1.52;;;;;;;;;;6772013;26;20356;-73
2024/04/11 08:38:47;;;;;;;6.32;1.33;;;;;;;;;;6790285;26;20018;-73
2024/04/11 08:41:51;;;;;;;6.32;2.05;;;;;;;;;;6799449;26;20071;-74
2024/04/11 08:44:57;;;;;;;4.25;2.08;;;;;;;;;;6787743;26;20111;-73
2024/04/11 08:48:01;;;;;;;5.28;1.90;;;;;;;;;;6768784;26;20079;-73
2024/04/11 08:51:24;;;;;;;3.90;2.38;;;;;;;;;;6755055;26;20013;-72
2024/04/11 08:54:28;;;;;;;4.13;1.80;;;;;;;;;;6776304;26;20011;-72
2024/04/11 08:57:30;;;;;;;3.80;1.48;;;;;;;;;;6765561;26;20042;-73
2024/04/11 09:00:41;;;;;;;3.65;1.95;;;;;;;;;;6776350;26;20006;-72
2024/04/11 09:03:52;;;;;;;5.90;2.05;;;;;;;;;;6786541;26;20091;-73
2024/04/11 09:06:57;;;;;;;3.67;1.27;;;;;;;;;;6781763;26;20474;-72
2024/04/11 09:10:05;;;;;;;3.17;1.52;;;;;;;;;;6766516;26;19999;-73
2024/04/11 09:13:15;;;;;;;2.97;1.50;;;;;;;;;;6782336;26;20018;-72
2024/04/11 09:16:21;;;;;;;4.25;1.30;;;;;;;;;;6776005;26;20020;-73
2024/04/11 09:19:23;;;;;;;4.85;1.73;;;;;;;;;;6791081;26;20013;-73
2024/04/11 09:22:28;;;;;;;2.97;1.10;;;;;;;;;;6779772;26;20005;-71
2024/04/11 09:25:30;;;;;;;3.30;1.13;;;;;;;;;;6784650;26;20016;-72
2024/04/11 09:28:33;;;;;;;5.70;1.23;;;;;;;;;;6792218;26;20003;-72
2024/04/11 09:31:36;;;;;;;2.97;1.00;;;;;;;;;;6778430;26;20013;-72
2024/04/11 09:34:40;;;;;;;3.33;1.42;;;;;;;;;;6788247;26;19998;-72
2024/04/11 09:37:49;;;;;;;5.85;1.05;;;;;;;;;;6788319;26;20003;-72
2024/04/11 09:40:53;;;;;;;4.00;1.08;;;;;;;;;;6779587;26;20030;-72
2024/04/11 09:43:56;;;;;;;;;;;;;;;;;;6777878;26;20043;-72
2024/04/11 09:47:00;;;;;;;7.53;1.15;;;;;;;;;;6770117;26;20369;-72
2024/04/11 09:50:04;;;;;;;3.60;0.95;;;;;;;;;;6800158;26;19994;-72
2024/04/11 09:53:13;;;;;;;2.03;0.88;;;;;;;;;;6770452;26;20043;-72
2024/04/11 09:56:17;;;;;;;2.97;0.85;;;;;;;;;;6784376;26;20039;-73
2024/04/11 09:59:21;;;;;;;6.22;3.53;;;;;;;;;;6786953;26;20787;-72
2024/04/11 10:02:28;;;;;;;2.78;1.35;;;;;;;;;;6800799;26;20002;-73
2024/04/11 10:05:38;;;;;;;4.18;0.98;;;;;;;;;;6841306;25;20014;-73
2024/04/11 10:08:45;;;;;;;5.53;0.98;;;;;;;;;;6794419;26;20013;-72
2024/04/11 10:11:51;;;;;;;4.20;1.48;;;;;;;;;;6758859;26;20038;-73
2024/04/11 10:14:57;;;;;;;3.00;1.13;;;;;;;;;;6790521;25;19999;-73
2024/04/11 10:18:10;;;;;;;3.80;1.13;;;;;;;;;;6793132;26;20364;-73
2024/04/11 10:21:26;;;;;;;4.13;1.17;;;;;;;;;;6767247;26;19999;-73
2024/04/11 10:24:49;;;;;;;5.20;1.00;;;;;;;;;;6772691;26;20086;-73
2024/04/11 10:27:55;;;;;;;3.03;1.10;;;;;;;;;;6779761;26;20460;-72
2024/04/11 10:30:59;;;;;;;3.28;1.30;;;;;;;;;;6726030;26;20078;-72
2024/04/11 10:34:10;;;;;;;3.20;1.35;;;;;;;;;;6796121;26;20014;-72
2024/04/11 10:37:17;;;;;;;5.35;1.25;;;;;;;;;;6788078;26;20080;-72
2024/04/11 10:40:24;;;;;;;5.70;2.80;;;;;;;;;;6769103;26;20061;-72
2024/04/11 10:43:27;;;;;;;3.55;1.40;;;;;;;;;;6809973;26;20550;-72
2024/04/11 10:46:31;;;;;;;4.85;3.05;;;;;;;;;;6796314;25;22746;-72
2024/04/11 10:49:45;;;;;;;2.97;1.67;;;;;;;;;;6797224;26;20773;-72
2024/04/11 10:52:50;;;;;;;8.02;2.30;;;;;;;;;;6784760;26;20786;-73
2024/04/11 10:55:55;;;;;;;2.85;1.35;;;;;;;;;;6772917;26;20142;-73
2024/04/11 10:59:00;;;;;;;2.88;1.00;;;;;;;;;;6807478;26;20072;-73
2024/04/11 11:02:08;;;;;;;5.32;1.17;;;;;;;;;;6842490;25;20003;-73
2024/04/11 11:05:14;;;;;;;3.30;1.77;;;;;;;;;;6801908;26;20609;-73
2024/04/11 11:08:22;;;;;;;3.08;1.10;;;;;;;;;;6788337;26;19995;-73
2024/04/11 11:11:26;;;;;;;4.10;1.00;;;;;;;;;;6795988;26;20409;-72
2024/04/11 11:14:31;;;;;;;3.25;1.30;;;;;;;;;;6791894;26;19998;-72
2024/04/11 11:17:39;;;;;;;15.82;1.75;;;;;;;;;;6788556;26;20012;-73
2024/04/11 11:20:44;;;;;;;4.10;1.63;;;;;;;;;;6786142;26;20009;-73
2024/04/11 11:23:47;;;;;;;2.85;0.90;;;;;;;;;;6784363;26;20013;-73
2024/04/11 11:26:55;;;;;;;5.15;1.15;;;;;;;;;;6787485;26;20463;-75
2024/04/11 11:29:58;;;;;;;4.15;1.67;;;;;;;;;;6794372;26;19998;-73
2024/04/11 11:33:04;;;;;;;2.28;0.80;;;;;;;;;;6797593;25;19998;-73
2024/04/11 11:36:07;;;;;;;3.75;1.48;;;;;;;;;;6789166;26;20006;-73
2024/04/11 11:39:17;;;;;;;4.10;1.38;;;;;;;;;;6813627;26;20002;-73
2024/04/11 11:42:32;;;;;;;6.07;1.83;;;;;;;;;;6777246;26;20033;-73
2024/04/11 11:46:16;;;;;;;3.03;1.25;;;;;;;;;;6797121;26;20587;-73
2024/04/11 11:48:57;;;;;;;3.47;1.13;;;;;;;;;;6778018;26;20608;-72
2024/04/11 11:52:01;;;;;;;4.43;1.63;;;;;;;;;;6799408;26;20002;-73
2024/04/11 11:55:04;;;;;;;3.35;1.42;;;;;;;;;;6827412;26;20005;-72
2024/04/11 11:58:07;;;;;;;3.60;1.40;;;;;;;;;;6764247;26;20012;-73
2024/04/11 12:01:58;;;;;;;5.28;1.20;;;;;;;;;;6800370;26;19999;-73
2024/04/11 12:04:38;;;;;;;6.72;2.95;;;;;;;;;;6765674;26;20810;-73
2024/04/11 12:07:43;;;;;;;6.07;1.33;;;;;;;;;;6766081;26;20003;-73
2024/04/11 12:14:16;;;;;;;3.47;1.25;;;;;;;;;;6788311;26;20067;-73
2024/04/11 12:17:26;;;;;;;7.28;1.05;;;;;;;;;;6795189;26;19998;-73
2024/04/11 12:20:31;;;;;;;;;;;;;;;;;;6801107;26;20444;-73
2024/04/11 12:23:34;;;;;;;6.80;2.17;;;;;;;;;;6777964;25;19996;-72
2024/04/11 12:26:39;;;;;;;4.95;1.85;;;;;;;;;;6761781;26;20088;-73
2024/04/11 12:29:43;;;;;;;3.45;1.10;;;;;;;;;;6723213;26;20036;-73
2024/04/11 12:32:47;;;;;;;;;;;;;;;;;;6755145;26;20015;-73
2024/04/11 12:35:56;;;;;;;3.63;1.30;;;;;;;;;;6794134;26;19923;-73
2024/04/11 12:39:12;;;;;;;2.60;1.35;;;;;;;;;;6779985;26;20001;-73
2024/04/11 12:42:17;;;;;;;3.65;1.80;;;;;;;;;;6791175;26;20014;-73
2024/04/11 12:45:21;;;;;;;5.30;2.20;;;;;;;;;;6779243;26;20477;-73
2024/04/11 12:48:25;;;;;;;3.55;2.42;;;;;;;;;;6786617;26;20795;-74
2024/04/11 12:51:33;;;;;;;4.50;1.63;;;;;;;;;;6819250;25;19994;-73
2024/04/11 12:54:36;;;;;;;6.10;1.73;;;;;;;;;;6827834;25;20954;-73
2024/04/11 12:57:39;;;;;;;9.10;1.60;;;;;;;;;;6792537;25;20006;-74
2024/04/11 13:00:51;;;;;;;4.15;1.48;;;;;;;;;;6729025;26;20017;-73
2024/04/11 13:04:08;;;;;;;8.07;1.20;;;;;;;;;;6780546;26;20016;-74
2024/04/11 13:07:11;;;;;;;4.47;1.38;;;;;;;;;;6770824;26;20002;-72
2024/04/11 13:10:15;;;;;;;5.60;1.30;;;;;;;;;;6795313;26;20443;-73
2024/04/11 13:13:19;;;;;;;3.45;2.22;;;;;;;;;;6794752;26;20514;-73
2024/04/11 13:16:22;;;;;;;5.22;1.60;;;;;;;;;;6787729;26;19998;-73
2024/04/11 13:19:27;;;;;;;5.03;1.42;;;;;;;;;;6795970;25;20473;-73
2024/04/11 13:22:34;;;;;;;8.13;2.42;;;;;;;;;;6786029;26;20759;-73
2024/04/11 13:25:45;;;;;;;3.17;0.98;;;;;;;;;;6786601;26;20055;-74
2024/04/11 13:28:54;;;;;;;4.05;1.55;;;;;;;;;;6792467;26;20447;-74
2024/04/11 13:31:58;;;;;;;4.18;2.17;;;;;;;;;;6785257;25;20837;-73
2024/04/11 13:35:04;;;;;;;7.45;1.42;;;;;;;;;;6780832;26;19998;-73
2024/04/11 13:38:13;;;;;;;2.58;1.08;;;;;;;;;;6774918;26;20385;-74
2024/04/11 13:41:31;;;;;;;3.83;1.33;;;;;;;;;;6788423;26;20006;-74
2024/04/11 13:44:35;;;;;;;3.10;1.45;;;;;;;;;;6792666;26;20014;-74
2024/04/11 13:47:38;;;;;;;4.38;1.60;;;;;;;;;;6830824;25;20003;-74
2024/04/11 13:50:44;;;;;;;3.70;1.45;;;;;;;;;;6755546;26;20010;-75
2024/04/11 13:54:02;;;;;;;5.72;1.77;;;;;;;;;;6794349;26;20013;-73
2024/04/11 13:57:09;;;;;;;3.22;1.38;;;;;;;;;;6798726;25;20006;-73
2024/04/11 14:00:13;;;;;;;3.13;1.17;;;;;;;;;;6771400;26;20006;-73
2024/04/11 14:04:00;;;;;;;6.90;1.23;;;;;;;;;;6790292;26;20010;-74
2024/04/11 14:09:52;;;;;;;4.00;1.42;;;;;;;;;;6789207;26;20789;-73
2024/04/11 14:12:55;;;;;;;;;;;;;;;;;;6772059;26;20001;-74
2024/04/11 14:16:04;;;;;;;4.80;1.38;;;;;;;;;;6784963;25;19924;-73
2024/04/11 14:19:07;;;;;;;3.47;1.40;;;;;;;;;;6837320;25;19994;-73
2024/04/11 14:25:29;;;;;;;4.13;1.48;;;;;;;;;;6785626;26;20002;-74
2024/04/11 14:28:43;;;;;;;2.63;1.30;;;;;;;;;;6773210;26;19997;-75
2024/04/11 14:31:52;;;;;;;5.18;1.33;;;;;;;;;;6797323;26;20476;-75
2024/04/11 14:38:07;;;;;;;4.82;1.65;;;;;;;;;;6806300;25;19999;-75
2024/04/11 14:41:10;;;;;;;3.63;1.15;;;;;;;;;;6790403;26;20009;-76
2024/04/11 14:44:18;;;;;;;2.97;1.50;;;;;;;;;;6841225;25;20014;-73
2024/04/11 14:47:21;;;;;;;4.53;1.65;;;;;;;;;;6817653;26;19997;-73
2024/04/11 14:50:24;;;;;;;4.68;1.98;;;;;;;;;;6812207;26;20494;-74
2024/04/11 14:53:33;;;;;;;4.63;1.60;;;;;;;;;;6782768;26;19999;-74
2024/04/11 14:56:40;;;;;;;4.45;1.25;;;;;;;;;;6778648;26;19999;-74
2024/04/11 14:59:46;;;;;;;3.88;1.40;;;;;;;;;;6772181;26;19998;-74
2024/04/11 15:02:54;;;;;;;3.17;1.30;;;;;;;;;;6792813;26;20002;-74
2024/04/11 15:05:57;;;;;;;5.03;1.50;;;;;;;;;;6777564;26;20951;-74
2024/04/11 15:09:26;;;;;;;5.97;1.70;;;;;;;;;;6771918;26;19994;-74
2024/04/11 15:12:34;;;;;;;7.55;1.40;;;;;;;;;;6783060;26;20038;-74
2024/04/11 15:15:56;;;;;;;4.72;1.50;;;;;;;;;;6787291;26;20017;-74
2024/04/11 15:19:03;;;;;;;6.25;2.13;;;;;;;;;;6788697;26;20037;-74
2024/04/11 15:22:06;;;;;;;4.82;1.40;;;;;;;;;;6771640;26;20050;-74
2024/04/11 15:25:10;;;;;;;4.15;1.42;;;;;;;;;;6807133;26;20095;-75
2024/04/11 15:28:24;;;;;;;4.10;1.55;;;;;;;;;;6789505;26;20079;-75
2024/04/11 15:31:30;;;;;;;6.50;1.80;;;;;;;;;;6795412;26;20009;-75
2024/04/11 15:34:52;;;;;;;3.92;2.00;;;;;;;;;;6801368;26;20849;-72
2024/04/11 15:40:58;;;;;;;4.57;1.33;;;;;;;;;;6827792;25;20016;-74
2024/04/11 15:44:10;;;;;;;4.40;1.65;;;;;;;;;;6780429;26;20500;-74
2024/04/11 15:47:15;;;;;;;3.67;2.85;;;;;;;;;;6782267;26;20479;-71
2024/04/11 15:50:18;;;;;;;4.78;1.60;;;;;;;;;;6777117;26;20777;-74
2024/04/11 15:53:21;;;;;;;3.97;1.85;;;;;;;;;;6768509;26;20003;-72
2024/04/11 15:56:37;;;;;;;3.63;1.98;;;;;;;;;;6752679;26;20010;-73
2024/04/11 15:59:39;;;;;;;5.00;2.45;;;;;;;;;;6777114;26;20046;-74
2024/04/11 16:02:45;;;;;;;4.68;1.55;;;;;;;;;;6820494;25;20954;-73
2024/04/11 16:05:52;;;;;;;3.83;2.75;;;;;;;;;;6794653;26;20804;-74
2024/04/11 16:08:58;;;;;;;7.63;3.38;;;;;;;;;;6799402;25;20541;-73
2024/04/11 16:12:02;;;;;;;4.47;1.75;;;;;;;;;;6791865;26;20005;-74
2024/04/11 16:15:09;;;;;;;4.05;1.83;;;;;;;;;;6799866;26;20029;-76
2024/04/11 16:18:16;;;;;;;6.38;1.85;;;;;;;;;;6794990;25;20006;-77
2024/04/11 16:21:20;;;;;;;5.57;1.80;;;;;;;;;;6817809;25;20021;-74
2024/04/11 16:24:48;;;;;;;5.32;2.00;;;;;;;;;;6804306;26;20067;-75
2024/04/11 16:27:57;;;;;;;3.53;1.67;;;;;;;;;;6810886;26;19998;-74
2024/04/11 16:31:25;;;;;;;5.30;2.42;;;;;;;;;;6796229;26;20009;-73
2024/04/11 16:34:30;;;;;;;8.77;1.90;;;;;;;;;;6764067;26;20020;-74
2024/04/11 16:37:36;;;;;;;5.07;2.28;;;;;;;;;;6812626;26;20002;-74
2024/04/11 16:40:41;;;;;;;3.83;2.22;;;;;;;;;;6795725;26;20577;-75
2024/04/11 16:43:53;;;;;;;6.93;2.70;;;;;;;;;;6782365;26;19999;-73
2024/04/11 16:46:55;;;;;;;6.45;2.58;;;;;;;;;;6807620;26;20030;-74
2024/04/11 16:50:05;;;;;;;11.50;5.13;;;;;;;;;;6791500;26;20014;-73
2024/04/11 16:53:09;;;;;;;5.80;3.15;;;;;;;;;;6790052;26;19994;-73
2024/04/11 16:56:18;;;;;;;5.25;2.72;;;;;;;;;;6788778;26;20046;-73
2024/04/11 16:59:32;;;;;;;7.22;3.03;;;;;;;;;;6771407;26;20578;-73
2024/04/11 17:02:35;;;;;;;5.85;2.85;;;;;;;;;;6790322;26;20021;-73
2024/04/11 17:05:40;;;;;;;6.18;2.72;;;;;;;;;;6793112;26;20087;-73
2024/04/11 17:08:45;;;;;;;4.50;2.40;;;;;;;;;;6785983;26;20083;-72
2024/04/11 17:11:48;;;;;;;5.82;3.15;;;;;;;;;;6750243;26;20005;-73
2024/04/11 17:14:53;;;;;;;4.88;2.65;;;;;;;;;;6774215;26;20021;-73
2024/04/11 17:18:09;;;;;;;10.52;3.53;;;;;;;;;;6792282;26;20034;-73
2024/04/11 17:21:18;;;;;;;6.13;3.78;;;;;;;;;;6837837;25;20016;-73
2024/04/11 17:24:21;;;;;;;7.30;3.05;;;;;;;;;;6800935;26;20034;-73
2024/04/11 17:27:27;;;;;;;6.75;3.78;;;;;;;;;;6795266;25;20006;-74
2024/04/11 17:31:01;;;;;;;7.90;3.25;;;;;;;;;;6785615;26;20034;-74
2024/04/11 17:34:06;;;;;;;8.20;3.63;;;;;;;;;;6780575;26;19995;-74
2024/04/11 17:37:14;;;;;;;6.47;3.40;;;;;;;;;;6776994;26;19998;-73
2024/04/11 17:40:36;;;;;;;6.90;3.42;;;;;;;;;;6780639;26;20474;-74
2024/04/11 17:43:43;;;;;;;5.82;2.40;;;;;;;;;;6788217;26;20014;-74
2024/04/11 17:50:05;;;;;;;6.13;2.88;;;;;;;;;;6797110;26;20451;-73
2024/04/11 17:53:08;;;;;;;6.47;3.72;;;;;;;;;;6795704;26;20006;-74
2024/04/11 17:56:14;;;;;;;10.30;4.47;;;;;;;;;;6791210;26;20042;-74
2024/04/11 17:59:17;;;;;;;6.20;4.25;;;;;;;;;;6789784;26;20378;-74
2024/04/11 18:02:19;;;;;;;5.78;3.65;;;;;;;;;;6785319;26;19999;-74
2024/04/11 18:05:24;;;;;;;7.13;3.58;;;;;;;;;;6788267;26;19998;-73
2024/04/11 18:08:31;;;;;;;6.13;2.95;;;;;;;;;;6755507;26;20021;-73
2024/04/11 18:11:46;;;;;;;18.20;6.82;;;;;;;;;;6793968;26;20087;-74
2024/04/11 18:14:49;;;;;;;6.18;3.83;;;;;;;;;;6783253;26;20006;-73
2024/04/11 18:17:53;;;;;;;8.10;3.17;;;;;;;;;;6788602;25;20021;-73
2024/04/11 18:20:59;;;;;;;;;;;;;;;;;;6796157;26;20006;-73
2024/04/11 18:24:03;;;;;;;5.28;3.17;;;;;;;;;;6797901;26;20588;-73
2024/04/11 18:27:11;;;;;;;7.85;3.75;;;;;;;;;;6785581;26;20367;-73
2024/04/11 18:30:22;;;;;;;9.68;3.40;;;;;;;;;;6792116;26;20006;-73
2024/04/11 18:33:31;;;;;;;;;;;;;;;;;;6790597;26;19998;-74
2024/04/11 18:36:37;;;;;;;7.75;3.45;;;;;;;;;;6742292;26;19984;-74
2024/04/11 18:39:43;;;;;;;5.90;3.92;;;;;;;;;;6787535;26;20427;-74
2024/04/11 18:42:46;;;;;;;9.57;3.35;;;;;;;;;;6755307;25;20809;-73
2024/04/11 18:45:52;;;;;;;5.55;3.53;;;;;;;;;;6778934;26;20456;-74
2024/04/11 18:48:58;;;;;;;6.50;3.78;;;;;;;;;;6786947;26;20003;-74
2024/04/11 18:52:12;;;;;;;9.40;4.28;;;;;;;;;;6797539;26;20002;-74
2024/04/11 18:55:19;;;;;;;5.30;3.38;;;;;;;;;;6790934;26;20054;-74